createdAt,value
2023-04-09T00:00:15.303Z,8.22
2023-04-09T00:03:22.816Z,8.12
2023-04-09T00:06:11.944Z,7.92
2023-04-09T00:08:57.836Z,7.77
2023-04-09T00:11:43.967Z,8.05
2023-04-09T00:14:29.940Z,7.92
2023-04-09T00:17:17.814Z,8.41
2023-04-09T00:20:04.542Z,8.25
2023-04-09T00:22:51.913Z,7.97
2023-04-09T00:25:38.234Z,7.97
2023-04-09T00:28:24.762Z,7.90
2023-04-09T00:31:11.022Z,8.00
2023-04-09T00:33:57.385Z,8.11
2023-04-09T00:36:43.495Z,8.40
2023-04-09T00:39:31.017Z,7.88
2023-04-09T00:42:17.670Z,8.09
2023-04-09T00:45:05.417Z,8.18
2023-04-09T00:47:51.924Z,8.11
2023-04-09T00:50:38.439Z,8.02
2023-04-09T00:53:26.052Z,8.16
2023-04-09T00:56:13.953Z,8.04
2023-04-09T00:59:00.494Z,7.86
2023-04-09T01:01:46.976Z,7.82
2023-04-09T01:04:33.220Z,8.05
2023-04-09T01:07:47.860Z,8.37
2023-04-09T01:11:20.352Z,8.09
2023-04-09T01:14:22.003Z,7.71
2023-04-09T01:17:25.327Z,8.15
2023-04-09T01:20:23.324Z,8.32
2023-04-09T01:23:39.670Z,8.41
2023-04-09T01:26:42.152Z,7.87
2023-04-09T01:29:32.180Z,7.78
2023-04-09T01:32:19.874Z,8.18
2023-04-09T01:35:07.886Z,8.03
2023-04-09T01:37:54.883Z,7.56
2023-04-09T01:40:41.851Z,8.04
2023-04-09T01:43:28.800Z,7.87
2023-04-09T01:46:16.346Z,7.77
2023-04-09T01:49:03.130Z,7.94
2023-04-09T01:51:50.526Z,7.79
2023-04-09T01:54:37.548Z,7.56
2023-04-09T01:57:24.084Z,7.42
2023-04-09T02:00:11.545Z,7.44
2023-04-09T02:03:11.071Z,7.62
2023-04-09T02:06:08.258Z,7.28
2023-04-09T02:08:55.226Z,7.46
2023-04-09T02:11:42.472Z,8.06
2023-04-09T02:14:29.570Z,7.72
2023-04-09T02:17:15.969Z,7.69
2023-04-09T02:20:01.876Z,8.26
2023-04-09T02:22:50.125Z,7.96
2023-04-09T02:25:36.444Z,7.76
2023-04-09T02:28:22.593Z,8.06
2023-04-09T02:31:11.668Z,7.55
2023-04-09T02:33:58.542Z,7.83
2023-04-09T02:36:44.460Z,8.05
2023-04-09T02:39:31.199Z,7.67
2023-04-09T02:42:17.533Z,7.91
2023-04-09T02:45:06.331Z,8.13
2023-04-09T02:47:52.869Z,8.06
2023-04-09T02:50:39.951Z,8.23
2023-04-09T02:53:26.176Z,7.77
2023-04-09T02:56:12.605Z,8.21
2023-04-09T02:58:58.718Z,7.83
2023-04-09T03:01:45.040Z,8.00
2023-04-09T03:04:31.263Z,8.27
2023-04-09T03:07:17.924Z,8.26
2023-04-09T03:10:03.856Z,7.80
2023-04-09T03:12:50.058Z,8.10
2023-04-09T03:15:35.911Z,7.88
2023-04-09T03:18:22.478Z,7.52
2023-04-09T03:21:09.413Z,7.98
2023-04-09T03:24:07.767Z,8.05
2023-04-09T03:26:54.472Z,7.52
2023-04-09T03:29:41.169Z,8.16
2023-04-09T03:32:27.409Z,7.94
2023-04-09T03:35:14.993Z,8.12
2023-04-09T03:38:03.639Z,7.53
2023-04-09T03:40:50.137Z,7.80
2023-04-09T03:43:36.915Z,7.84
2023-04-09T03:46:23.918Z,7.82
2023-04-09T03:49:10.517Z,8.08
2023-04-09T03:52:01.524Z,7.72
2023-04-09T03:54:55.929Z,7.80
2023-04-09T03:57:44.636Z,8.35
2023-04-09T04:00:34.809Z,8.22
2023-04-09T04:03:41.712Z,7.93
2023-04-09T04:06:35.798Z,7.90
2023-04-09T04:09:31.246Z,7.84
2023-04-09T04:12:22.986Z,7.88
2023-04-09T04:15:29.227Z,8.37
2023-04-09T04:18:15.925Z,7.98
2023-04-09T04:21:05.270Z,8.01
2023-04-09T04:23:52.957Z,8.28
2023-04-09T04:26:43.767Z,7.99
2023-04-09T04:29:33.043Z,7.80
2023-04-09T04:32:21.348Z,8.01
2023-04-09T04:35:08.293Z,8.30
2023-04-09T04:37:55.059Z,7.53
2023-04-09T04:40:41.881Z,7.64
2023-04-09T04:43:28.223Z,8.11
2023-04-09T04:46:17.182Z,7.94
2023-04-09T04:49:04.167Z,8.19
2023-04-09T04:51:50.881Z,8.02
2023-04-09T04:54:37.216Z,8.44
2023-04-09T04:57:23.238Z,7.66
2023-04-09T05:00:09.860Z,8.05
2023-04-09T05:02:56.512Z,7.78
2023-04-09T05:06:00.171Z,8.29
2023-04-09T05:08:53.636Z,7.84
2023-04-09T05:11:41.921Z,8.03
2023-04-09T05:14:33.823Z,7.94
2023-04-09T05:17:20.439Z,7.98
2023-04-09T05:20:07.668Z,7.81
2023-04-09T05:23:05.093Z,7.74
2023-04-09T05:25:57.130Z,7.55
2023-04-09T05:28:54.612Z,7.15
2023-04-09T05:31:43.320Z,7.85
2023-04-09T05:34:39.763Z,7.35
2023-04-09T05:37:25.843Z,7.12
2023-04-09T05:40:13.544Z,6.90
2023-04-09T05:43:00.242Z,6.56
2023-04-09T05:45:56.904Z,6.65
2023-04-09T05:48:43.320Z,6.70
2023-04-09T05:51:30.455Z,6.60
2023-04-09T05:54:17.225Z,6.18
2023-04-09T05:57:03.766Z,5.59
2023-04-09T05:59:53.544Z,6.20
2023-04-09T06:02:40.800Z,5.50
2023-04-09T06:05:26.912Z,5.87
2023-04-09T06:08:14.238Z,5.89
2023-04-09T06:11:00.636Z,6.12
2023-04-09T06:13:47.559Z,6.64
2023-04-09T06:16:33.750Z,6.44
2023-04-09T06:19:20.416Z,6.84
2023-04-09T06:22:06.486Z,6.77
2023-04-09T06:24:52.577Z,6.96
2023-04-09T06:27:38.433Z,6.32
2023-04-09T06:30:26.102Z,6.74
2023-04-09T06:33:12.109Z,6.75
2023-04-09T06:35:59.116Z,6.65
2023-04-09T06:38:45.957Z,6.46
2023-04-09T06:41:33.583Z,6.32
2023-04-09T06:44:24.469Z,6.33
2023-04-09T06:47:11.190Z,6.24
2023-04-09T06:49:57.369Z,6.66
2023-04-09T06:52:46.942Z,6.44
2023-04-09T06:55:32.807Z,6.39
2023-04-09T06:58:18.987Z,5.57
2023-04-09T07:01:06.099Z,6.40
2023-04-09T07:03:53.162Z,6.03
2023-04-09T07:06:40.651Z,5.48
2023-04-09T07:09:27.714Z,6.16
2023-04-09T07:12:35.673Z,5.74
2023-04-09T07:15:22.231Z,6.45
2023-04-09T07:18:09.510Z,6.21
2023-04-09T07:20:59.266Z,6.46
2023-04-09T07:23:45.792Z,6.07
2023-04-09T07:26:32.510Z,5.92
2023-04-09T07:29:20.690Z,5.94
2023-04-09T07:32:06.961Z,6.35
2023-04-09T07:34:53.401Z,5.91
2023-04-09T07:37:39.609Z,6.28
2023-04-09T07:40:25.779Z,6.05
2023-04-09T07:43:12.249Z,6.28
2023-04-09T07:45:57.882Z,6.01
2023-04-09T07:48:44.036Z,6.31
2023-04-09T07:51:31.532Z,6.36
2023-04-09T07:54:18.538Z,6.34
2023-04-09T07:57:05.804Z,6.33
2023-04-09T07:59:53.558Z,6.02
2023-04-09T08:02:39.595Z,6.09
2023-04-09T08:05:26.055Z,6.49
2023-04-09T08:08:12.840Z,6.53
2023-04-09T08:10:59.355Z,6.55
2023-04-09T08:13:45.076Z,6.06
2023-04-09T08:16:33.614Z,6.12
2023-04-09T08:19:20.480Z,6.56
2023-04-09T08:22:06.936Z,6.30
2023-04-09T08:24:53.351Z,6.62
2023-04-09T08:27:40.197Z,6.77
2023-04-09T08:30:26.598Z,6.84
2023-04-09T08:33:14.100Z,6.42
2023-04-09T08:36:03.105Z,6.39
2023-04-09T08:38:49.623Z,6.59
2023-04-09T08:41:36.827Z,6.15
2023-04-09T08:44:26.895Z,6.31
2023-04-09T08:47:13.361Z,6.11
2023-04-09T08:49:59.744Z,6.45
2023-04-09T08:52:48.157Z,6.69
2023-04-09T08:55:34.849Z,6.64
2023-04-09T08:58:21.531Z,6.55
2023-04-09T09:01:28.274Z,6.93
2023-04-09T09:04:14.354Z,6.91
2023-04-09T09:07:06.825Z,7.41
2023-04-09T09:10:05.631Z,7.36
2023-04-09T09:12:52.171Z,7.25
2023-04-09T09:15:39.047Z,7.75
2023-04-09T09:18:42.273Z,7.94
2023-04-09T09:21:29.476Z,7.79
2023-04-09T09:24:19.071Z,8.03
2023-04-09T09:27:05.465Z,8.12
2023-04-09T09:29:51.761Z,7.98
2023-04-09T09:32:37.601Z,8.00
2023-04-09T09:35:23.885Z,8.10
2023-04-09T09:38:09.971Z,7.80
2023-04-09T09:40:56.354Z,7.78
2023-04-09T09:43:42.719Z,8.06
2023-04-09T09:46:31.778Z,8.02
2023-04-09T09:49:17.779Z,8.13
2023-04-09T09:52:07.845Z,7.79
2023-04-09T09:54:55.930Z,8.10
2023-04-09T09:57:45.138Z,8.39
2023-04-09T10:00:32.792Z,8.27
2023-04-09T10:03:26.101Z,8.00
2023-04-09T10:06:13.626Z,8.09
2023-04-09T10:09:04.796Z,8.45
2023-04-09T10:11:50.700Z,7.95
2023-04-09T10:14:37.736Z,8.36
2023-04-09T10:17:23.684Z,8.71
2023-04-09T10:20:10.397Z,8.32
2023-04-09T10:22:56.846Z,8.65
2023-04-09T10:25:43.459Z,8.85
2023-04-09T10:28:30.047Z,8.42
2023-04-09T10:31:16.390Z,8.85
2023-04-09T10:34:05.480Z,9.02
2023-04-09T10:36:54.018Z,9.03
2023-04-09T10:39:42.563Z,8.82
2023-04-09T10:42:40.827Z,8.79
2023-04-09T10:45:39.699Z,8.64
2023-04-09T10:48:27.011Z,8.83
2023-04-09T10:51:19.225Z,9.57
2023-04-09T10:54:35.199Z,9.67
2023-04-09T10:57:22.392Z,9.80
2023-04-09T11:00:10.494Z,9.59
2023-04-09T11:03:11.072Z,9.80
2023-04-09T11:06:03.427Z,9.20
2023-04-09T11:08:49.080Z,9.82
2023-04-09T11:11:36.645Z,9.69
2023-04-09T11:14:24.081Z,9.37
2023-04-09T11:17:11.075Z,9.46
2023-04-09T11:19:57.270Z,9.68
2023-04-09T11:22:43.435Z,10.12
2023-04-09T11:25:31.845Z,10.01
2023-04-09T11:28:19.695Z,9.88
2023-04-09T11:31:07.362Z,10.04
2023-04-09T11:33:53.698Z,10.00
2023-04-09T11:36:41.421Z,9.73
2023-04-09T11:39:28.694Z,9.79
2023-04-09T11:42:15.216Z,9.97
2023-04-09T11:45:01.766Z,10.50
2023-04-09T11:47:48.532Z,10.30
2023-04-09T11:50:35.060Z,10.34
2023-04-09T11:53:22.946Z,10.38
2023-04-09T11:56:09.017Z,10.04
2023-04-09T11:58:55.109Z,10.56
2023-04-09T12:01:41.875Z,10.50
2023-04-09T12:04:28.144Z,10.43
2023-04-09T12:07:14.688Z,10.21
2023-04-09T12:10:11.455Z,10.55
2023-04-09T12:13:11.336Z,10.00
2023-04-09T12:15:59.166Z,10.79
2023-04-09T12:18:50.871Z,10.30
2023-04-09T12:21:50.917Z,10.66
2023-04-09T12:24:37.676Z,10.73
2023-04-09T12:27:23.515Z,11.05
2023-04-09T12:30:11.248Z,10.54
2023-04-09T12:32:57.140Z,10.79
2023-04-09T12:35:43.334Z,10.76
2023-04-09T12:38:29.507Z,11.22
2023-04-09T12:41:16.575Z,10.55
2023-04-09T12:44:02.840Z,11.21
2023-04-09T12:46:50.347Z,10.90
2023-04-09T18:17:47.346Z,9.27
2023-04-09T18:59:53.165Z,8.29
2023-04-09T19:03:08.524Z,9.21
2023-04-09T19:06:11.950Z,9.21
2023-04-09T19:10:09.951Z,8.46
2023-04-09T19:17:51.737Z,8.95
2023-04-09T19:21:43.450Z,9.29
2023-04-09T19:25:03.232Z,8.47
2023-04-09T19:49:49.881Z,9.30
2023-04-09T19:53:56.535Z,9.31
2023-04-09T20:38:16.939Z,8.79
2023-04-09T20:41:26.949Z,8.77
2023-04-09T20:44:18.996Z,9.11
2023-04-09T21:35:20.837Z,7.60
2023-04-09T21:53:03.623Z,7.96
2023-04-09T21:59:47.573Z,6.92
2023-04-09T22:19:51.231Z,8.09
2023-04-09T22:22:54.656Z,8.13
2023-04-09T22:26:22.127Z,7.44
2023-04-09T22:29:38.077Z,8.39
2023-04-09T22:32:43.447Z,8.52
2023-04-09T22:36:04.291Z,7.75
2023-04-09T22:38:59.399Z,8.16
2023-04-09T22:57:09.390Z,8.32
2023-04-09T23:12:13.138Z,8.17
